createdAt,value
2023-03-22T00:00:42.635Z,75.25
2023-03-22T00:01:42.612Z,75.89
2023-03-22T00:02:42.694Z,75.89
2023-03-22T00:03:42.618Z,75.89
2023-03-22T00:04:42.600Z,74.93
2023-03-22T00:05:42.580Z,75.73
2023-03-22T00:06:42.559Z,74.60
2023-03-22T00:07:43.570Z,75.25
2023-03-22T00:08:42.542Z,75.25
2023-03-22T00:09:42.553Z,75.57
2023-03-22T00:10:42.520Z,75.73
2023-03-22T00:11:42.515Z,75.41
2023-03-22T00:12:42.505Z,76.22
2023-03-22T00:13:42.497Z,76.38
2023-03-22T00:14:42.494Z,75.89
2023-03-22T00:15:42.531Z,76.38
2023-03-22T00:16:42.482Z,76.86
2023-03-22T00:17:42.463Z,77.18
2023-03-22T00:18:42.462Z,77.34
2023-03-22T00:19:42.473Z,76.38
2023-03-22T00:20:42.431Z,76.86
2023-03-22T00:21:42.421Z,76.38
2023-03-22T00:22:42.418Z,77.34
2023-03-22T00:23:42.401Z,75.73
2023-03-22T00:24:42.403Z,75.89
2023-03-22T00:25:42.386Z,76.05
2023-03-22T00:26:42.373Z,76.38
2023-03-22T00:27:42.409Z,76.38
2023-03-22T00:28:42.349Z,78.47
2023-03-22T00:29:42.360Z,76.22
2023-03-22T00:30:42.337Z,76.86
2023-03-22T00:31:42.354Z,77.34
2023-03-22T00:32:42.327Z,76.22
2023-03-22T00:33:42.327Z,75.57
2023-03-22T00:34:42.320Z,76.54
2023-03-22T00:35:42.309Z,77.50
2023-03-22T00:36:42.278Z,76.70
2023-03-22T00:37:42.271Z,75.73
2023-03-22T00:38:44.448Z,77.99
2023-03-22T00:39:43.269Z,78.15
2023-03-22T00:40:42.247Z,76.70
2023-03-22T00:41:42.237Z,76.05
2023-03-22T00:42:42.232Z,76.05
2023-03-22T00:43:42.247Z,78.96
2023-03-22T00:44:42.216Z,77.83
2023-03-22T00:45:42.192Z,78.31
2023-03-22T00:46:42.187Z,77.02
2023-03-22T00:47:42.237Z,76.70
2023-03-22T00:48:42.188Z,77.50
2023-03-22T00:49:42.176Z,77.50
2023-03-22T00:50:42.151Z,76.70
2023-03-22T00:51:42.148Z,77.18
2023-03-22T00:52:42.155Z,77.50
2023-03-22T00:53:43.424Z,76.70
2023-03-22T00:54:43.124Z,79.12
2023-03-22T00:55:42.109Z,76.86
2023-03-22T00:56:42.114Z,76.22
2023-03-22T00:57:42.086Z,78.31
2023-03-22T00:58:42.115Z,78.47
2023-03-22T00:59:42.212Z,75.89
2023-03-22T01:00:42.453Z,76.54
2023-03-22T01:01:42.047Z,77.02
2023-03-22T01:02:42.043Z,75.73
2023-03-22T01:03:42.126Z,77.50
2023-03-22T01:04:42.044Z,77.83
2023-03-22T01:05:42.005Z,75.73
2023-03-22T01:06:42.009Z,76.38
2023-03-22T01:07:41.989Z,77.34
2023-03-22T01:08:41.990Z,76.86
2023-03-22T01:09:41.965Z,76.86
2023-03-22T01:10:42.067Z,76.70
2023-03-22T01:11:41.946Z,76.22
2023-03-22T01:12:41.942Z,76.70
2023-03-22T01:13:42.054Z,76.22
2023-03-22T01:14:41.921Z,76.05
2023-03-22T01:15:41.920Z,76.05
2023-03-22T01:16:41.986Z,78.96
2023-03-22T01:17:41.894Z,76.86
2023-03-22T01:18:41.876Z,76.38
2023-03-22T01:19:41.867Z,76.38
2023-03-22T01:20:42.055Z,76.70
2023-03-22T01:21:41.848Z,77.34
2023-03-22T01:22:41.846Z,76.22
2023-03-22T01:23:41.842Z,76.38
2023-03-22T01:24:41.823Z,77.18
2023-03-22T01:25:41.880Z,77.67
2023-03-22T01:26:41.802Z,78.31
2023-03-22T01:27:41.787Z,76.54
2023-03-22T01:28:41.776Z,79.92
2023-03-22T01:29:41.770Z,75.73
2023-03-22T01:30:42.286Z,77.50
2023-03-22T01:31:41.749Z,77.83
2023-03-22T01:32:41.737Z,75.89
2023-03-22T01:33:41.725Z,77.67
2023-03-22T01:34:41.748Z,77.50
2023-03-22T01:35:41.738Z,76.38
2023-03-22T01:36:41.703Z,77.18
2023-03-22T01:37:41.698Z,77.34
2023-03-22T01:38:41.708Z,76.70
2023-03-22T01:39:41.673Z,78.47
2023-03-22T01:40:42.103Z,77.34
2023-03-22T01:41:41.662Z,77.02
2023-03-22T01:42:41.643Z,76.70
2023-03-22T01:43:41.634Z,76.22
2023-03-22T01:44:41.622Z,76.86
2023-03-22T01:45:41.628Z,77.02
2023-03-22T01:46:41.688Z,77.83
2023-03-22T01:47:41.628Z,76.70
2023-03-22T01:48:41.633Z,77.18
2023-03-22T01:49:41.579Z,76.70
2023-03-22T01:50:41.858Z,77.67
2023-03-22T01:51:42.752Z,77.50
2023-03-22T01:52:42.604Z,78.63
2023-03-22T01:53:41.553Z,77.02
2023-03-22T01:54:41.540Z,77.02
2023-03-22T01:55:41.553Z,77.02
2023-03-22T01:56:41.541Z,77.67
2023-03-22T01:57:41.508Z,77.83
2023-03-22T01:58:41.499Z,76.38
2023-03-22T01:59:41.491Z,76.38
2023-03-22T02:00:41.646Z,76.70
2023-03-22T02:01:41.558Z,76.86
2023-03-22T02:02:41.490Z,77.99
2023-03-22T02:03:41.447Z,77.83
2023-03-22T02:04:41.438Z,77.99
2023-03-22T02:05:41.443Z,76.70
2023-03-22T02:06:41.418Z,76.54
2023-03-22T02:07:41.415Z,77.34
2023-03-22T02:08:41.404Z,78.31
2023-03-22T02:09:41.395Z,77.50
2023-03-22T02:10:41.529Z,78.31
2023-03-22T02:11:41.378Z,77.18
2023-03-22T02:12:41.369Z,78.31
2023-03-22T02:13:41.362Z,77.02
2023-03-22T02:14:41.348Z,75.89
2023-03-22T02:15:41.370Z,77.99
2023-03-22T02:16:41.330Z,77.34
2023-03-22T02:17:41.324Z,76.70
2023-03-22T02:18:41.309Z,77.02
2023-03-22T02:19:41.308Z,75.89
2023-03-22T02:20:41.704Z,76.70
2023-03-22T02:21:41.284Z,76.86
2023-03-22T02:22:41.274Z,77.50
2023-03-22T02:23:41.260Z,77.02
2023-03-22T02:24:43.896Z,80.73
2023-03-22T02:25:41.258Z,76.86
2023-03-22T02:26:41.237Z,81.69
2023-03-22T02:27:41.229Z,76.22
2023-03-22T02:28:41.226Z,77.50
2023-03-22T02:29:41.211Z,77.50
2023-03-22T02:30:41.460Z,79.44
2023-03-22T02:31:41.207Z,77.99
2023-03-22T02:32:41.192Z,77.18
2023-03-22T02:33:41.727Z,77.50
2023-03-22T02:34:42.206Z,76.22
2023-03-22T02:35:41.223Z,77.34
2023-03-22T02:36:41.154Z,78.31
2023-03-22T02:37:41.145Z,76.54
2023-03-22T02:38:41.138Z,78.31
2023-03-22T02:39:41.126Z,77.34
2023-03-22T02:40:41.418Z,78.15
2023-03-22T02:41:41.106Z,78.79
2023-03-22T02:42:41.098Z,76.22
2023-03-22T02:43:41.093Z,78.47
2023-03-22T02:44:41.091Z,77.67
2023-03-22T02:45:41.083Z,79.28
2023-03-22T02:46:41.115Z,76.86
2023-03-22T02:47:41.114Z,77.34
2023-03-22T02:48:41.041Z,76.22
2023-03-22T02:49:41.037Z,76.70
2023-03-22T02:50:41.132Z,76.70
2023-03-22T02:51:41.015Z,78.96
2023-03-22T02:52:41.007Z,78.63
2023-03-22T02:53:40.998Z,76.86
2023-03-22T02:54:43.314Z,78.63
2023-03-22T02:55:40.994Z,76.38
2023-03-22T02:56:40.967Z,77.18
2023-03-22T02:57:40.978Z,77.34
2023-03-22T02:58:41.950Z,77.83
2023-03-22T02:59:40.949Z,77.99
2023-03-22T03:00:41.246Z,78.15
2023-03-22T03:01:40.971Z,77.99
2023-03-22T03:02:40.932Z,77.67
2023-03-22T03:03:40.909Z,78.47
2023-03-22T03:04:40.895Z,76.38
2023-03-22T03:05:40.892Z,77.02
2023-03-22T03:06:40.881Z,77.34
2023-03-22T03:07:40.864Z,75.89
2023-03-22T03:08:40.849Z,77.50
2023-03-22T03:09:40.847Z,76.86
2023-03-22T03:10:41.426Z,77.99
2023-03-22T03:11:40.827Z,81.21
2023-03-22T03:12:40.819Z,78.31
2023-03-22T03:13:40.811Z,77.18
2023-03-22T03:14:40.797Z,78.31
2023-03-22T03:15:41.810Z,79.76
2023-03-22T03:16:40.813Z,78.31
2023-03-22T03:17:40.776Z,78.63
2023-03-22T03:18:40.765Z,76.54
2023-03-22T03:19:40.756Z,77.50
2023-03-22T03:20:41.017Z,76.54
2023-03-22T03:21:40.740Z,77.50
2023-03-22T03:22:40.763Z,79.44
2023-03-22T03:23:40.720Z,77.83
2023-03-22T03:24:40.788Z,80.08
2023-03-22T03:25:40.707Z,78.96
2023-03-22T03:26:40.689Z,77.83
2023-03-22T03:27:40.690Z,77.02
2023-03-22T03:28:40.670Z,76.22
2023-03-22T03:29:40.662Z,78.31
2023-03-22T03:30:40.920Z,78.47
2023-03-22T03:31:40.648Z,78.31
2023-03-22T03:32:40.634Z,79.28
2023-03-22T03:33:40.622Z,77.50
2023-03-22T03:34:40.618Z,78.96
2023-03-22T03:35:40.643Z,77.67
2023-03-22T03:36:40.604Z,78.15
2023-03-22T03:37:40.588Z,77.83
2023-03-22T03:38:40.584Z,78.31
2023-03-22T03:39:40.575Z,78.63
2023-03-22T03:40:41.004Z,77.83
2023-03-22T03:41:40.552Z,78.31
2023-03-22T03:42:40.545Z,76.54
2023-03-22T03:43:40.538Z,77.67
2023-03-22T03:44:40.523Z,77.83
2023-03-22T03:45:40.548Z,76.05
2023-03-22T03:46:40.507Z,77.67
2023-03-22T03:47:40.561Z,78.31
2023-03-22T03:48:40.492Z,77.18
2023-03-22T03:49:40.486Z,77.18
2023-03-22T03:50:40.733Z,78.47
2023-03-22T03:51:40.458Z,77.34
2023-03-22T03:52:40.469Z,79.12
2023-03-22T03:53:40.445Z,77.50
2023-03-22T03:54:40.432Z,77.18
2023-03-22T03:55:40.436Z,75.89
2023-03-22T03:56:40.439Z,78.31
2023-03-22T03:57:40.410Z,76.86
2023-03-22T03:58:40.402Z,77.34
2023-03-22T03:59:40.415Z,76.54
2023-03-22T04:00:40.591Z,77.99
2023-03-22T04:01:40.370Z,78.31
2023-03-22T04:02:40.432Z,79.12
2023-03-22T04:03:40.355Z,76.54
2023-03-22T04:04:40.374Z,78.63
2023-03-22T04:05:40.346Z,77.83
2023-03-22T04:06:40.330Z,77.18
2023-03-22T04:07:40.329Z,78.31
2023-03-22T04:08:40.313Z,78.31
2023-03-22T04:09:40.338Z,78.31
2023-03-22T04:10:40.562Z,78.79
2023-03-22T04:11:40.287Z,78.96
2023-03-22T04:12:40.286Z,77.99
2023-03-22T04:13:40.262Z,76.54
2023-03-22T04:14:40.257Z,77.67
2023-03-22T04:15:40.262Z,77.99
2023-03-22T04:16:40.258Z,77.99
2023-03-22T04:17:40.244Z,76.22
2023-03-22T04:18:40.225Z,76.38
2023-03-22T04:19:40.218Z,78.15
2023-03-22T04:20:40.621Z,77.50
2023-03-22T04:21:40.202Z,77.50
2023-03-22T04:22:40.193Z,76.22
2023-03-22T04:23:40.185Z,78.63
2023-03-22T04:24:40.176Z,77.02
2023-03-22T04:25:40.180Z,78.63
2023-03-22T04:26:40.156Z,77.34
2023-03-22T04:27:40.148Z,76.70
2023-03-22T04:28:40.144Z,78.63
2023-03-22T04:29:40.129Z,78.47
2023-03-22T04:30:40.431Z,77.99
2023-03-22T04:31:40.119Z,77.83
2023-03-22T04:32:40.143Z,80.08
2023-03-22T04:33:40.115Z,77.50
2023-03-22T04:34:40.089Z,77.34
2023-03-22T04:35:40.129Z,77.67
2023-03-22T04:36:40.074Z,78.79
2023-03-22T04:37:40.062Z,77.50
2023-03-22T04:38:40.059Z,77.67
2023-03-22T04:39:40.051Z,78.31
2023-03-22T04:40:40.287Z,78.31
2023-03-22T04:41:40.024Z,77.67
2023-03-22T04:42:40.054Z,77.83
2023-03-22T04:43:40.009Z,77.18
2023-03-22T04:44:40.002Z,78.79
2023-03-22T04:45:39.995Z,77.50
2023-03-22T04:46:40.044Z,77.67
2023-03-22T04:47:39.981Z,77.34
2023-03-22T04:48:39.990Z,79.28
2023-03-22T04:49:39.950Z,77.83
2023-03-22T04:50:40.279Z,78.31
2023-03-22T04:51:39.948Z,77.50
2023-03-22T04:52:39.936Z,76.54
2023-03-22T04:53:39.920Z,76.38
2023-03-22T04:54:39.909Z,76.05
2023-03-22T04:55:39.901Z,77.18
2023-03-22T04:56:39.899Z,76.22
2023-03-22T04:57:39.880Z,76.70
2023-03-22T04:58:39.875Z,76.70
2023-03-22T04:59:39.865Z,76.70
2023-03-22T05:00:40.063Z,78.31
2023-03-22T05:01:39.901Z,78.15
2023-03-22T05:02:41.230Z,76.70
2023-03-22T05:03:40.830Z,77.83
2023-03-22T05:04:39.824Z,76.54
2023-03-22T05:05:39.841Z,77.67
2023-03-22T05:06:39.811Z,77.02
2023-03-22T05:07:39.799Z,76.70
2023-03-22T05:08:39.785Z,77.50
2023-03-22T05:09:39.775Z,76.70
2023-03-22T05:10:40.041Z,76.22
2023-03-22T05:11:39.768Z,76.70
2023-03-22T05:12:39.762Z,76.70
2023-03-22T05:13:39.742Z,76.54
2023-03-22T05:14:39.778Z,76.86
2023-03-22T05:15:39.793Z,77.02
2023-03-22T05:16:39.727Z,77.67
2023-03-22T05:17:39.691Z,77.67
2023-03-22T05:18:40.699Z,76.70
2023-03-22T05:19:39.688Z,76.54
2023-03-22T05:20:39.927Z,77.02
2023-03-22T05:21:39.687Z,78.31
2023-03-22T05:22:39.659Z,77.50
2023-03-22T05:23:39.648Z,77.02
2023-03-22T05:24:39.644Z,77.67
2023-03-22T05:25:39.637Z,77.50
2023-03-22T05:26:39.635Z,77.83
2023-03-22T05:27:39.629Z,77.02
2023-03-22T05:28:39.608Z,77.67
2023-03-22T05:29:39.604Z,76.38
2023-03-22T05:30:39.860Z,77.02
2023-03-22T05:31:40.602Z,77.02
2023-03-22T05:32:39.571Z,75.73
2023-03-22T05:33:39.568Z,76.70
2023-03-22T05:34:39.554Z,77.02
2023-03-22T05:35:39.565Z,77.34
2023-03-22T05:36:39.547Z,77.02
2023-03-22T05:37:39.529Z,76.86
2023-03-22T05:38:39.522Z,77.02
2023-03-22T05:39:39.510Z,77.50
2023-03-22T05:40:39.707Z,78.79
2023-03-22T05:41:39.505Z,77.99
2023-03-22T05:42:39.485Z,77.67
2023-03-22T05:43:39.478Z,77.50
2023-03-22T05:44:39.470Z,77.67
2023-03-22T05:45:39.461Z,77.99
2023-03-22T05:46:39.545Z,78.79
2023-03-22T05:47:39.476Z,78.63
2023-03-22T05:48:39.430Z,77.99
2023-03-22T05:49:39.430Z,78.63
2023-03-22T05:50:39.618Z,79.12
2023-03-22T05:51:39.424Z,80.08
2023-03-22T05:52:39.405Z,79.44
2023-03-22T05:53:39.394Z,77.50
2023-03-22T05:54:39.390Z,79.28
2023-03-22T05:55:39.373Z,79.76
2023-03-22T05:56:39.373Z,78.15
2023-03-22T05:57:39.355Z,77.83
2023-03-22T05:58:39.346Z,79.76
2023-03-22T05:59:39.334Z,79.28
2023-03-22T06:00:39.588Z,78.47
2023-03-22T06:01:39.366Z,78.79
2023-03-22T06:02:39.362Z,78.96
2023-03-22T06:03:39.296Z,79.44
2023-03-22T06:04:39.289Z,77.83
2023-03-22T06:05:39.277Z,77.83
2023-03-22T06:06:39.288Z,77.83
2023-03-22T06:07:39.257Z,77.83
2023-03-22T06:08:39.262Z,77.99
2023-03-22T06:09:39.246Z,76.86
2023-03-22T06:10:39.570Z,77.02
2023-03-22T06:11:39.237Z,77.02
2023-03-22T06:12:39.231Z,76.22
2023-03-22T06:13:39.211Z,77.18
2023-03-22T06:14:39.192Z,77.83
2023-03-22T06:15:39.186Z,77.67
2023-03-22T06:16:39.231Z,77.99
2023-03-22T06:17:39.170Z,77.34
2023-03-22T06:18:39.169Z,76.86
2023-03-22T06:19:39.161Z,77.50
2023-03-22T06:20:39.367Z,77.83
2023-03-22T06:21:39.144Z,77.02
2023-03-22T06:22:39.122Z,77.50
2023-03-22T06:23:39.117Z,76.70
2023-03-22T06:24:39.102Z,76.38
2023-03-22T06:25:39.094Z,77.18
2023-03-22T06:26:39.095Z,77.50
2023-03-22T06:27:39.081Z,77.50
2023-03-22T06:28:39.078Z,76.38
2023-03-22T06:29:40.059Z,75.89
2023-03-22T06:30:39.499Z,76.38
2023-03-22T06:31:39.043Z,77.02
2023-03-22T06:32:39.036Z,76.22
2023-03-22T06:33:39.017Z,76.22
2023-03-22T06:34:39.006Z,76.22
2023-03-22T06:35:39.047Z,75.73
2023-03-22T06:36:39.001Z,76.05
2023-03-22T06:37:38.985Z,75.57
2023-03-22T06:38:38.969Z,75.89
2023-03-22T06:39:38.964Z,76.54
2023-03-22T06:40:39.251Z,75.89
2023-03-22T06:41:38.949Z,76.05
2023-03-22T06:42:38.931Z,76.22
2023-03-22T06:43:38.924Z,76.22
2023-03-22T06:44:38.916Z,76.22
2023-03-22T06:45:38.946Z,76.38
2023-03-22T06:46:38.902Z,76.38
2023-03-22T06:47:38.889Z,76.22
2023-03-22T06:48:38.877Z,76.38
2023-03-22T06:49:38.867Z,76.05
2023-03-22T06:50:39.314Z,75.57
2023-03-22T06:51:38.857Z,76.38
2023-03-22T06:52:38.845Z,75.89
2023-03-22T06:53:38.825Z,74.77
2023-03-22T06:54:38.817Z,75.25
2023-03-22T06:55:38.828Z,74.93
2023-03-22T06:56:38.810Z,75.09
2023-03-22T06:57:38.785Z,75.25
2023-03-22T06:58:38.785Z,77.34
2023-03-22T06:59:38.770Z,75.57
2023-03-22T07:00:39.227Z,75.09
2023-03-22T07:01:38.776Z,77.34
2023-03-22T07:02:38.739Z,76.38
2023-03-22T07:03:38.724Z,75.57
2023-03-22T07:04:38.781Z,76.70
2023-03-22T07:05:38.705Z,76.70
2023-03-22T07:06:39.719Z,76.38
2023-03-22T07:07:38.693Z,76.22
2023-03-22T07:08:38.689Z,76.54
2023-03-22T07:09:38.678Z,75.73
2023-03-22T07:10:39.024Z,76.38
2023-03-22T07:11:38.676Z,76.86
2023-03-22T07:12:38.651Z,75.57
2023-03-22T07:13:38.636Z,75.73
2023-03-22T07:14:38.628Z,74.60
2023-03-22T07:15:38.708Z,76.22
2023-03-22T07:16:38.609Z,74.60
2023-03-22T07:17:38.610Z,74.93
2023-03-22T07:18:38.589Z,74.93
2023-03-22T07:19:38.584Z,74.77
2023-03-22T07:20:38.991Z,74.28
2023-03-22T07:21:38.567Z,75.25
2023-03-22T07:22:38.575Z,73.96
2023-03-22T07:23:38.549Z,74.60
2023-03-22T07:24:47.306Z,74.12
2023-03-22T07:25:40.525Z,73.96
2023-03-22T07:26:38.515Z,74.44
2023-03-22T07:27:38.514Z,73.96
2023-03-22T07:28:38.505Z,74.77
2023-03-22T07:29:38.492Z,74.28
2023-03-22T07:30:38.886Z,74.60
2023-03-22T07:31:38.474Z,73.32
2023-03-22T07:32:38.535Z,73.64
2023-03-22T07:33:38.461Z,74.77
2023-03-22T07:34:38.440Z,73.96
2023-03-22T07:35:38.538Z,74.60
2023-03-22T07:36:38.424Z,73.64
2023-03-22T07:37:38.434Z,74.44
2023-03-22T07:38:38.408Z,74.12
2023-03-22T07:39:38.405Z,73.96
2023-03-22T07:40:38.643Z,73.64
2023-03-22T07:41:38.378Z,74.12
2023-03-22T07:42:38.380Z,74.44
2023-03-22T07:43:52.416Z,74.12
2023-03-22T07:44:40.350Z,74.12
2023-03-22T07:45:38.348Z,73.64
2023-03-22T07:46:38.399Z,74.12
2023-03-22T07:47:41.329Z,73.80
2023-03-22T07:48:39.308Z,73.48
2023-03-22T07:49:38.305Z,73.15
2023-03-22T07:50:38.564Z,73.80
2023-03-22T07:51:38.287Z,73.32
2023-03-22T07:52:38.296Z,72.99
2023-03-22T07:53:38.263Z,73.80
2023-03-22T07:54:38.287Z,74.28
2023-03-22T07:55:38.247Z,73.64
2023-03-22T07:56:38.240Z,73.64
2023-03-22T07:57:38.234Z,74.12
2023-03-22T07:58:38.272Z,73.96
2023-03-22T07:59:40.123Z,73.96
2023-03-22T08:00:39.417Z,73.48
2023-03-22T08:01:38.255Z,74.28
2023-03-22T08:02:38.219Z,73.15
2023-03-22T08:03:38.174Z,73.64
2023-03-22T08:04:38.160Z,73.32
2023-03-22T08:05:38.690Z,74.44
2023-03-22T08:06:38.139Z,73.64
2023-03-22T08:07:38.148Z,73.48
2023-03-22T08:08:38.134Z,73.15
2023-03-22T08:09:38.113Z,73.32
2023-03-22T08:10:38.407Z,72.99
2023-03-22T08:11:38.091Z,73.15
2023-03-22T08:12:38.094Z,72.67
2023-03-22T08:13:38.120Z,72.99
2023-03-22T08:14:38.061Z,72.99
2023-03-22T08:15:38.301Z,73.64
2023-03-22T08:16:38.069Z,72.99
2023-03-22T08:17:38.052Z,72.99
2023-03-22T08:18:38.022Z,72.67
2023-03-22T08:19:38.007Z,72.51
2023-03-22T08:20:38.576Z,72.83
2023-03-22T08:21:38.027Z,72.83
2023-03-22T08:22:38.306Z,72.35
2023-03-22T08:23:42.090Z,71.54
2023-03-22T08:24:38.960Z,72.83
2023-03-22T08:25:38.949Z,73.32
2023-03-22T08:26:37.943Z,74.77
2023-03-22T08:27:37.954Z,74.28
2023-03-22T08:28:38.929Z,72.51
2023-03-22T08:29:37.919Z,72.19
2023-03-22T08:30:38.173Z,72.35
2023-03-22T08:31:37.906Z,72.35
2023-03-22T08:32:37.894Z,72.03
2023-03-22T08:33:37.917Z,72.03
2023-03-22T08:34:37.862Z,71.22
2023-03-22T08:35:38.318Z,71.70
2023-03-22T08:36:37.851Z,71.54
2023-03-22T08:37:37.856Z,72.03
2023-03-22T08:38:37.824Z,71.38
2023-03-22T08:39:37.826Z,71.38
2023-03-22T08:40:37.870Z,72.03
2023-03-22T08:41:37.794Z,71.70
2023-03-22T08:42:37.791Z,71.22
2023-03-22T08:43:37.866Z,71.38
2023-03-22T08:44:37.791Z,71.06
2023-03-22T08:45:38.350Z,71.87
2023-03-22T08:46:37.743Z,71.06
2023-03-22T08:47:37.754Z,71.06
2023-03-22T08:48:37.728Z,71.38
2023-03-22T08:49:37.724Z,71.87
2023-03-22T08:50:37.708Z,71.06
2023-03-22T08:51:37.695Z,71.87
2023-03-22T08:52:37.696Z,71.70
2023-03-22T08:53:37.722Z,72.51
2023-03-22T08:54:37.673Z,71.38
2023-03-22T08:55:38.041Z,72.19
2023-03-22T08:56:37.675Z,70.58
2023-03-22T08:57:38.887Z,71.70
2023-03-22T08:58:38.640Z,71.54
2023-03-22T08:59:37.632Z,71.06
2023-03-22T09:00:48.113Z,70.25
2023-03-22T09:01:39.766Z,70.58
2023-03-22T09:02:37.602Z,70.90
2023-03-22T09:03:37.625Z,70.90
2023-03-22T09:04:37.626Z,70.58
2023-03-22T09:05:37.986Z,70.58
2023-03-22T09:06:37.560Z,71.38
2023-03-22T09:07:37.568Z,71.06
2023-03-22T09:08:37.548Z,71.06
2023-03-22T09:09:37.520Z,70.90
2023-03-22T09:10:38.511Z,70.25
2023-03-22T09:11:37.525Z,69.93
2023-03-22T09:12:37.505Z,70.74
2023-03-22T09:13:37.546Z,69.93
2023-03-22T09:14:37.501Z,69.77
2023-03-22T09:15:37.487Z,69.77
2023-03-22T09:16:37.492Z,69.29
2023-03-22T09:17:37.452Z,69.45
2023-03-22T09:18:37.462Z,69.45
2023-03-22T09:19:37.490Z,69.61
2023-03-22T09:20:37.477Z,69.29
2023-03-22T09:21:37.418Z,69.77
2023-03-22T09:22:37.456Z,69.77
2023-03-22T09:23:37.428Z,68.96
2023-03-22T09:24:37.380Z,69.77
2023-03-22T09:25:37.359Z,69.61
2023-03-22T09:26:37.351Z,69.77
2023-03-22T09:27:37.352Z,69.45
2023-03-22T09:28:37.391Z,69.29
2023-03-22T09:29:37.314Z,68.64
2023-03-22T09:30:37.336Z,68.64
2023-03-22T09:31:37.355Z,69.93
2023-03-22T09:32:37.299Z,68.48
2023-03-22T09:33:37.292Z,67.84
2023-03-22T09:34:37.274Z,68.16
2023-03-22T09:35:37.296Z,67.03
2023-03-22T09:36:37.247Z,68.16
2023-03-22T09:37:37.245Z,66.87
2023-03-22T09:38:37.233Z,66.39
2023-03-22T09:39:37.208Z,66.39
2023-03-22T09:40:38.210Z,66.39
2023-03-22T09:41:37.199Z,66.06
2023-03-22T09:42:37.222Z,66.06
2023-03-22T09:43:37.231Z,64.94
2023-03-22T09:44:37.170Z,64.45
2023-03-22T09:45:37.182Z,63.49
2023-03-22T09:46:37.297Z,63.16
2023-03-22T09:47:44.293Z,63.16
2023-03-22T09:48:39.137Z,64.94
2023-03-22T09:49:52.276Z,63.33
2023-03-22T09:50:39.115Z,64.13
2023-03-22T09:51:37.101Z,62.52
2023-03-22T09:52:37.100Z,62.36
2023-03-22T09:53:37.084Z,63.16
2023-03-22T09:54:37.077Z,62.52
2023-03-22T09:55:37.481Z,62.52
2023-03-22T09:56:37.049Z,63.81
2023-03-22T09:57:37.061Z,63.81
2023-03-22T09:58:37.106Z,62.68
2023-03-22T09:59:37.021Z,63.00
2023-03-22T10:00:37.147Z,62.52
2023-03-22T10:01:37.169Z,62.36
2023-03-22T10:02:37.061Z,62.20
2023-03-22T10:03:36.992Z,62.04
2023-03-22T10:04:37.052Z,63.33
2023-03-22T10:05:36.978Z,62.36
2023-03-22T10:06:36.948Z,62.04
2023-03-22T10:07:36.936Z,61.55
2023-03-22T10:08:36.941Z,62.04
2023-03-22T10:09:36.915Z,61.55
2023-03-22T10:10:36.897Z,60.91
2023-03-22T10:11:36.898Z,62.20
2023-03-22T10:12:36.881Z,61.87
2023-03-22T10:13:36.891Z,62.68
2023-03-22T10:14:36.863Z,62.20
2023-03-22T10:15:36.855Z,62.52
2023-03-22T10:16:36.869Z,62.36
2023-03-22T10:17:36.829Z,62.36
2023-03-22T10:18:36.836Z,61.23
2023-03-22T10:19:36.810Z,62.04
2023-03-22T10:20:36.797Z,61.39
2023-03-22T10:21:36.784Z,61.55
2023-03-22T10:22:36.852Z,62.52
2023-03-22T10:23:36.773Z,63.49
2023-03-22T10:24:36.762Z,67.68
2023-03-22T10:25:36.755Z,63.65
2023-03-22T10:26:36.766Z,63.81
2023-03-22T10:27:36.724Z,63.65
2023-03-22T10:28:36.725Z,63.81
2023-03-22T10:29:36.739Z,64.13
2023-03-22T10:30:36.704Z,63.97
2023-03-22T10:31:36.751Z,63.81
2023-03-22T10:32:45.211Z,63.81
2023-03-22T10:33:38.667Z,62.68
2023-03-22T10:34:36.646Z,61.71
2023-03-22T10:35:36.686Z,60.42
2023-03-22T10:36:36.632Z,62.04
2023-03-22T10:37:36.626Z,61.87
2023-03-22T10:38:36.619Z,60.91
2023-03-22T10:39:38.505Z,62.68
2023-03-22T10:40:36.584Z,61.55
2023-03-22T10:41:36.618Z,61.55
2023-03-22T10:42:36.570Z,65.26
2023-03-22T10:43:36.574Z,63.81
2023-03-22T10:44:36.553Z,63.65
2023-03-22T10:45:36.546Z,63.16
2023-03-22T10:46:36.585Z,63.97
2023-03-22T10:47:36.517Z,63.16
2023-03-22T10:48:36.567Z,63.16
2023-03-22T10:49:36.504Z,63.81
2023-03-22T10:50:36.536Z,64.13
2023-03-22T10:51:36.529Z,63.00
2023-03-22T10:52:36.471Z,63.65
2023-03-22T10:53:36.476Z,63.16
2023-03-22T10:54:36.470Z,63.97
2023-03-22T10:55:36.449Z,63.49
2023-03-22T10:56:36.437Z,63.97
2023-03-22T10:57:36.444Z,63.65
2023-03-22T10:58:36.427Z,63.97
2023-03-22T10:59:36.419Z,63.81
2023-03-22T11:00:39.863Z,64.13
2023-03-22T11:01:37.640Z,64.78
2023-03-22T11:02:36.544Z,63.81
2023-03-22T11:03:36.424Z,63.97
2023-03-22T11:04:36.368Z,63.97
2023-03-22T11:05:36.347Z,63.97
2023-03-22T11:06:36.331Z,63.97
2023-03-22T11:07:36.322Z,64.61
2023-03-22T11:08:36.405Z,63.97
2023-03-22T11:09:36.298Z,63.97
2023-03-22T11:10:36.333Z,64.29
2023-03-22T11:11:36.311Z,63.81
2023-03-22T11:12:37.797Z,64.94
2023-03-22T11:13:36.273Z,64.13
2023-03-22T11:14:36.271Z,64.13
2023-03-22T11:15:36.244Z,64.78
2023-03-22T11:16:36.272Z,63.97
2023-03-22T11:17:36.229Z,64.94
2023-03-22T11:18:36.224Z,64.13
2023-03-22T11:19:36.199Z,64.45
2023-03-22T11:20:36.233Z,64.13
2023-03-22T11:21:36.176Z,64.13
2023-03-22T11:22:36.166Z,64.13
2023-03-22T11:23:36.163Z,64.94
2023-03-22T11:24:36.151Z,64.61
2023-03-22T11:25:36.143Z,64.61
2023-03-22T11:26:39.041Z,64.29
2023-03-22T11:27:37.138Z,64.61
2023-03-22T11:28:36.122Z,64.78
2023-03-22T11:29:36.094Z,66.06
2023-03-22T11:30:36.086Z,65.58
2023-03-22T11:31:36.152Z,66.39
2023-03-22T11:32:36.139Z,65.58
2023-03-22T11:33:36.080Z,64.94
2023-03-22T11:34:36.047Z,64.78
2023-03-22T11:35:36.060Z,64.78
2023-03-22T11:36:36.018Z,64.94
2023-03-22T11:37:36.022Z,65.10
2023-03-22T11:38:36.009Z,65.10
2023-03-22T11:39:36.001Z,65.58
2023-03-22T11:40:35.980Z,65.26
2023-03-22T11:41:35.967Z,64.45
2023-03-22T11:42:35.960Z,65.42
2023-03-22T11:43:35.984Z,65.26
2023-03-22T11:44:35.951Z,64.61
2023-03-22T11:45:35.945Z,65.58
2023-03-22T11:46:35.976Z,65.26
2023-03-22T11:47:35.956Z,65.58
2023-03-22T11:48:36.089Z,65.58
2023-03-22T11:49:35.884Z,65.10
2023-03-22T11:50:35.873Z,65.90
2023-03-22T11:51:35.869Z,65.42
2023-03-22T11:52:35.853Z,64.78
2023-03-22T11:53:35.858Z,65.58
2023-03-22T11:54:35.833Z,66.23
2023-03-22T11:55:35.836Z,66.39
2023-03-22T11:56:35.815Z,68.16
2023-03-22T11:57:35.798Z,66.55
2023-03-22T11:58:35.799Z,67.03
2023-03-22T11:59:35.786Z,65.90
2023-03-22T12:00:35.767Z,66.23
2023-03-22T12:01:35.765Z,66.55
2023-03-22T12:02:35.889Z,67.03
2023-03-22T12:03:38.837Z,66.71
2023-03-22T12:04:36.758Z,66.39
2023-03-22T12:05:35.718Z,65.90
2023-03-22T12:06:35.823Z,66.39
2023-03-22T12:07:35.694Z,65.74
2023-03-22T12:08:35.692Z,66.06
2023-03-22T12:09:35.683Z,67.51
2023-03-22T12:10:35.667Z,67.51
2023-03-22T12:11:35.658Z,67.68
2023-03-22T12:12:35.643Z,65.90
2023-03-22T12:13:35.664Z,67.19
2023-03-22T12:14:35.632Z,67.51
2023-03-22T12:15:35.641Z,67.03
2023-03-22T12:16:35.629Z,69.13
2023-03-22T12:17:35.661Z,66.71
2023-03-22T12:18:35.602Z,67.03
2023-03-22T12:19:35.578Z,68.48
2023-03-22T12:20:35.576Z,67.03
2023-03-22T12:21:35.562Z,67.84
2023-03-22T12:22:35.552Z,68.48
2023-03-22T12:23:35.557Z,68.32
2023-03-22T12:24:35.532Z,66.87
2023-03-22T12:25:35.540Z,67.03
2023-03-22T12:26:35.514Z,66.55
2023-03-22T12:27:35.501Z,67.03
2023-03-22T12:28:35.520Z,68.00
2023-03-22T12:29:35.490Z,67.68
2023-03-22T12:30:35.483Z,67.68
2023-03-22T12:31:35.500Z,68.00
2023-03-22T12:32:35.488Z,68.80
2023-03-22T12:33:35.450Z,68.48
2023-03-22T12:34:35.450Z,68.32
2023-03-22T12:35:35.552Z,69.13
2023-03-22T12:36:36.414Z,68.16
2023-03-22T12:37:35.409Z,68.00
2023-03-22T12:38:35.516Z,68.96
2023-03-22T12:39:35.385Z,68.16
2023-03-22T12:40:35.378Z,68.64
2023-03-22T12:41:35.376Z,68.48
2023-03-22T12:42:40.641Z,67.84
2023-03-22T12:43:36.363Z,68.80
2023-03-22T12:44:35.341Z,68.00
2023-03-22T12:45:35.327Z,68.64
2023-03-22T12:46:35.345Z,69.13
2023-03-22T12:47:35.334Z,68.96
2023-03-22T12:48:35.349Z,69.29
2023-03-22T12:49:35.290Z,69.93
2023-03-22T12:50:35.279Z,69.61
2023-03-22T12:51:35.271Z,69.61
2023-03-22T12:52:44.806Z,69.45